createdAt,value
2022-12-13T00:01:28.711Z,8.50
2022-12-13T00:03:57.778Z,8.35
2022-12-13T00:06:25.142Z,8.27
2022-12-13T00:08:53.010Z,8.63
2022-12-13T00:11:19.936Z,8.52
2022-12-13T00:13:47.895Z,8.60
2022-12-13T00:16:22.646Z,8.20
2022-12-13T00:18:56.836Z,8.10
2022-12-13T00:21:26.341Z,8.13
2022-12-13T00:23:53.871Z,8.15
2022-12-13T00:26:23.250Z,7.55
2022-12-13T00:28:51.192Z,8.40
2022-12-13T00:31:53.621Z,8.35
2022-12-13T00:34:07.099Z,7.90
2022-12-13T00:36:33.884Z,7.63
2022-12-13T00:39:00.830Z,8.05
2022-12-13T00:41:30.337Z,8.23
2022-12-13T00:43:57.872Z,8.00
2022-12-13T00:46:24.775Z,7.88
2022-12-13T00:48:57.185Z,7.80
2022-12-13T00:51:26.292Z,8.00
2022-12-13T00:53:53.519Z,7.30
2022-12-13T00:56:25.432Z,7.73
2022-12-13T00:58:53.276Z,7.85
2022-12-13T01:01:24.308Z,7.57
2022-12-13T01:03:56.542Z,7.60
2022-12-13T01:06:35.653Z,7.90
2022-12-13T01:09:05.730Z,7.70
2022-12-13T01:11:32.514Z,7.40
2022-12-13T01:13:59.234Z,7.70
2022-12-13T01:16:26.512Z,7.97
2022-12-13T01:18:53.358Z,7.65
2022-12-13T01:21:23.440Z,7.95
2022-12-13T01:23:50.897Z,7.97
2022-12-13T01:26:20.217Z,7.78
2022-12-13T01:28:47.833Z,7.47
2022-12-13T01:31:18.326Z,8.30
2022-12-13T01:33:45.559Z,7.43
2022-12-13T01:36:16.154Z,7.57
2022-12-13T01:38:43.121Z,7.40
2022-12-13T01:41:17.871Z,7.32
2022-12-13T01:43:47.618Z,7.55
2022-12-13T01:46:16.380Z,7.63
2022-12-13T01:49:20.916Z,7.40
2022-12-13T01:52:02.797Z,7.68
2022-12-13T01:54:35.087Z,7.57
2022-12-13T01:57:06.544Z,7.40
2022-12-13T01:59:39.395Z,7.20
2022-12-13T02:02:08.604Z,7.57
2022-12-13T02:04:45.134Z,7.65
2022-12-13T02:07:22.846Z,7.65
2022-12-13T02:09:56.647Z,7.00
2022-12-13T02:12:30.519Z,7.70
2022-12-13T02:15:07.330Z,7.72
2022-12-13T02:18:11.406Z,7.60
2022-12-13T02:20:56.292Z,7.53
2022-12-13T02:23:48.006Z,7.63
2022-12-13T02:26:32.797Z,7.15
2022-12-13T02:29:05.317Z,7.63
2022-12-13T02:31:54.397Z,7.87
2022-12-13T02:34:36.316Z,7.38
2022-12-13T02:37:20.168Z,8.02
2022-12-13T02:40:04.674Z,7.60
2022-12-13T02:43:14.910Z,7.03
2022-12-13T02:46:12.524Z,7.60
2022-12-13T02:48:41.533Z,8.43
2022-12-13T02:51:11.589Z,7.90
2022-12-13T02:53:41.228Z,7.72
2022-12-13T02:56:07.919Z,7.95
2022-12-13T02:58:40.601Z,8.48
2022-12-13T03:01:27.633Z,7.90
2022-12-13T03:04:20.083Z,8.00
2022-12-13T03:07:11.924Z,7.60
2022-12-13T03:09:55.314Z,8.18
2022-12-13T03:13:13.498Z,8.00
2022-12-13T03:15:54.339Z,7.68
2022-12-13T03:18:23.571Z,15.07
2022-12-13T03:20:58.689Z,7.72
2022-12-13T03:23:26.509Z,7.60
2022-12-13T03:26:08.609Z,7.80
2022-12-13T03:28:35.798Z,7.93
2022-12-13T03:31:02.696Z,7.55
2022-12-13T03:33:29.618Z,8.23
2022-12-13T03:35:56.844Z,8.07
2022-12-13T03:38:24.696Z,7.95
2022-12-13T03:40:55.780Z,7.88
2022-12-13T03:43:23.528Z,7.72
2022-12-13T03:45:51.831Z,7.53
2022-12-13T03:48:22.642Z,7.97
2022-12-13T03:50:52.376Z,7.87
2022-12-13T03:53:22.801Z,7.70
2022-12-13T03:56:00.960Z,7.38
2022-12-13T03:58:35.984Z,7.53
2022-12-13T04:01:08.894Z,7.95
2022-12-13T04:03:37.016Z,7.72
2022-12-13T04:06:04.749Z,7.40
2022-12-13T04:08:31.783Z,7.47
2022-12-13T04:10:58.992Z,7.45
2022-12-13T04:13:34.766Z,7.50
2022-12-13T04:16:02.990Z,7.27
2022-12-13T04:18:29.894Z,7.82
2022-12-13T04:20:57.360Z,7.40
2022-12-13T04:23:24.580Z,7.72
2022-12-13T04:25:51.603Z,7.43
2022-12-13T04:28:22.358Z,7.53
2022-12-13T04:30:53.527Z,7.80
2022-12-13T04:33:24.332Z,7.38
2022-12-13T04:35:51.522Z,7.47
2022-12-13T04:38:19.377Z,8.10
2022-12-13T04:40:46.685Z,7.60
2022-12-13T04:43:13.363Z,7.88
2022-12-13T04:45:40.280Z,7.43
2022-12-13T04:48:08.091Z,7.55
2022-12-13T04:50:35.542Z,7.28
2022-12-13T04:53:02.522Z,7.00
2022-12-13T04:55:29.338Z,7.28
2022-12-13T04:57:56.223Z,6.88
2022-12-13T05:00:23.163Z,7.13
2022-12-13T05:02:50.176Z,7.47
2022-12-13T05:05:17.532Z,7.40
2022-12-13T05:07:44.500Z,7.32
2022-12-13T05:10:11.926Z,6.95
2022-12-13T05:12:39.055Z,6.93
2022-12-13T05:15:06.378Z,7.40
2022-12-13T05:17:33.552Z,7.32
2022-12-13T05:20:00.542Z,7.35
2022-12-13T05:22:27.328Z,7.07
2022-12-13T05:24:54.131Z,6.88
2022-12-13T05:27:24.594Z,7.25
2022-12-13T05:30:04.962Z,7.20
2022-12-13T05:32:43.675Z,7.28
2022-12-13T05:35:23.068Z,7.57
2022-12-13T05:37:55.239Z,6.70
2022-12-13T05:40:26.771Z,7.22
2022-12-13T05:43:01.719Z,7.28
2022-12-13T05:45:29.856Z,7.45
2022-12-13T05:47:58.263Z,7.13
2022-12-13T05:50:25.265Z,7.18
2022-12-13T05:52:52.414Z,7.10
2022-12-13T05:55:19.746Z,6.97
2022-12-13T05:57:50.641Z,7.22
2022-12-13T06:00:30.006Z,7.65
2022-12-13T06:03:01.038Z,6.90
2022-12-13T06:05:31.686Z,7.50
2022-12-13T06:07:59.074Z,6.97
2022-12-13T06:10:34.763Z,7.70
2022-12-13T06:13:21.460Z,7.40
2022-12-13T06:15:52.675Z,7.65
2022-12-13T06:18:32.729Z,7.90
2022-12-13T06:21:01.195Z,7.35
2022-12-13T06:23:29.395Z,8.02
2022-12-13T06:25:56.510Z,7.80
2022-12-13T06:28:23.728Z,7.63
2022-12-13T06:30:53.706Z,7.30
2022-12-13T06:33:23.142Z,7.60
2022-12-13T06:35:52.494Z,7.50
2022-12-13T06:38:32.121Z,7.30
2022-12-13T06:41:10.386Z,7.47
2022-12-13T06:43:37.330Z,7.25
2022-12-13T06:46:05.562Z,7.20
2022-12-13T06:48:32.726Z,7.20
2022-12-13T06:51:03.841Z,7.55
2022-12-13T06:53:31.139Z,7.28
2022-12-13T06:56:13.148Z,7.15
2022-12-13T06:58:41.524Z,7.50
2022-12-13T07:01:15.094Z,7.30
2022-12-13T07:03:51.614Z,6.82
2022-12-13T07:06:21.309Z,7.30
2022-12-13T07:08:51.537Z,6.85
2022-12-13T07:11:22.251Z,7.32
2022-12-13T07:13:49.111Z,7.10
2022-12-13T07:16:15.950Z,7.18
2022-12-13T07:18:42.849Z,6.80
2022-12-13T07:21:22.175Z,6.88
2022-12-13T07:23:55.143Z,6.47
2022-12-13T07:26:22.753Z,6.82
2022-12-13T07:28:54.661Z,6.93
2022-12-13T07:31:22.784Z,6.47
2022-12-13T07:33:52.206Z,7.03
2022-12-13T07:36:21.306Z,6.63
2022-12-13T07:38:56.484Z,6.63
2022-12-13T07:41:24.868Z,6.93
2022-12-13T07:43:56.147Z,6.82
2022-12-13T07:46:32.453Z,6.40
2022-12-13T07:49:04.525Z,6.93
2022-12-13T07:51:34.968Z,7.30
2022-12-13T07:54:06.724Z,6.75
2022-12-13T07:56:34.632Z,6.60
2022-12-13T07:59:01.813Z,7.00
2022-12-13T08:01:35.058Z,6.97
2022-12-13T08:04:03.094Z,6.77
2022-12-13T08:06:31.415Z,6.70
2022-12-13T08:08:58.398Z,7.05
2022-12-13T08:11:25.111Z,7.60
2022-12-13T08:13:53.642Z,8.13
2022-12-13T08:16:27.756Z,9.02
2022-12-13T08:19:02.463Z,9.07
2022-12-13T08:21:56.792Z,10.15
2022-12-13T08:24:29.959Z,9.32
2022-12-13T08:27:02.164Z,9.48
2022-12-13T08:29:33.175Z,9.73
2022-12-13T08:32:12.787Z,9.57
2022-12-13T08:34:41.188Z,9.48
2022-12-13T08:37:08.072Z,10.07
2022-12-13T08:39:37.026Z,10.35
2022-12-13T08:42:16.812Z,10.77
2022-12-13T08:44:51.989Z,10.63
2022-12-13T08:47:24.225Z,10.77
2022-12-13T08:49:53.951Z,10.15
2022-12-13T08:52:23.681Z,10.52
2022-12-13T08:54:50.993Z,11.15
2022-12-13T08:57:18.846Z,10.50
2022-12-13T08:59:47.221Z,11.02
2022-12-13T09:02:15.330Z,10.20
2022-12-13T09:04:42.843Z,12.68
2022-12-13T09:07:10.221Z,12.73
2022-12-13T09:09:37.702Z,15.23
2022-12-13T09:12:10.286Z,18.02
2022-12-13T09:14:45.198Z,17.65
2022-12-13T09:17:24.233Z,16.58
2022-12-13T09:19:58.480Z,16.27
2022-12-13T09:22:33.489Z,15.70
2022-12-13T09:25:02.897Z,15.00
2022-12-13T09:27:30.750Z,14.80
2022-12-13T09:29:57.967Z,14.43
2022-12-13T09:32:25.559Z,14.20
2022-12-13T09:34:52.428Z,13.63
2022-12-13T09:37:22.754Z,13.35
2022-12-13T09:39:55.193Z,12.98
2022-12-13T09:42:30.273Z,13.10
2022-12-13T09:45:04.337Z,12.30
2022-12-13T09:47:36.868Z,12.65
2022-12-13T09:50:14.942Z,12.23
2022-12-13T09:52:44.106Z,11.63
2022-12-13T09:55:23.941Z,11.97
2022-12-13T09:57:52.694Z,10.65
2022-12-13T10:00:22.232Z,11.18
2022-12-13T10:02:57.909Z,11.05
2022-12-13T10:05:39.258Z,10.68
2022-12-13T10:08:12.830Z,10.75
2022-12-13T10:10:40.090Z,10.23
2022-12-13T10:13:26.157Z,9.90
2022-12-13T10:16:02.250Z,9.48
2022-12-13T10:18:41.351Z,10.18
2022-12-13T10:21:18.104Z,9.85
2022-12-13T10:24:22.739Z,9.37
2022-12-13T10:26:37.639Z,8.65
2022-12-13T10:29:06.073Z,9.95
2022-12-13T10:31:41.481Z,17.30
2022-12-13T10:34:18.881Z,22.13
2022-12-13T10:36:45.941Z,24.77
2022-12-13T10:39:41.742Z,23.67
2022-12-13T10:42:22.766Z,24.93
2022-12-13T10:45:16.077Z,25.55
2022-12-13T10:47:50.790Z,27.45
2022-12-13T10:50:27.201Z,26.40
2022-12-13T10:52:56.559Z,26.83
2022-12-13T10:55:28.689Z,26.23
2022-12-13T10:57:58.729Z,26.10
2022-12-13T11:00:40.685Z,26.13
2022-12-13T11:03:10.007Z,24.97
2022-12-13T11:05:38.210Z,24.08
2022-12-13T11:08:37.387Z,24.02
2022-12-13T11:11:06.842Z,23.83
2022-12-13T11:13:54.026Z,23.65
2022-12-13T11:16:31.778Z,22.25
2022-12-13T11:19:28.580Z,22.30
2022-12-13T11:21:55.754Z,21.45
2022-12-13T11:24:35.727Z,21.87
2022-12-13T11:27:22.014Z,22.42
2022-12-13T11:30:09.417Z,21.15
2022-12-13T11:32:39.352Z,22.13
2022-12-13T11:35:25.964Z,20.38
2022-12-13T11:38:25.862Z,20.58
2022-12-13T11:41:31.179Z,20.13
2022-12-13T11:44:08.354Z,20.42
2022-12-13T11:46:54.148Z,20.10
2022-12-13T11:49:42.354Z,19.50
2022-12-13T11:52:34.690Z,18.83
2022-12-13T11:55:03.854Z,19.10
2022-12-13T11:57:44.418Z,19.67
2022-12-13T12:00:34.474Z,19.33
2022-12-13T12:03:16.324Z,19.25
2022-12-13T12:06:12.614Z,19.58
2022-12-13T12:08:47.261Z,18.93
2022-12-13T12:12:02.074Z,18.02
2022-12-13T12:14:48.241Z,17.75
2022-12-13T12:17:23.764Z,17.13
2022-12-13T12:19:57.374Z,16.60
2022-12-13T12:22:47.629Z,15.90
2022-12-13T12:25:22.794Z,15.93
2022-12-13T12:27:59.511Z,15.48
2022-12-13T12:30:42.381Z,15.30
2022-12-13T12:33:27.590Z,14.20
2022-12-13T12:36:17.136Z,14.25
2022-12-13T12:38:44.337Z,13.13
2022-12-13T12:41:49.102Z,12.85
2022-12-13T12:44:34.765Z,12.67
2022-12-13T12:50:31.233Z,12.65
2022-12-13T12:53:25.857Z,12.80
2022-12-13T12:56:15.805Z,12.20
2022-12-13T12:59:01.139Z,11.40
2022-12-13T13:01:46.574Z,11.15
2022-12-13T13:04:22.414Z,10.73
2022-12-13T13:07:03.911Z,11.85
2022-12-13T13:09:31.950Z,11.00
2022-12-13T13:11:59.450Z,11.23
2022-12-13T13:14:37.743Z,10.70
2022-12-13T13:17:16.639Z,10.37
2022-12-13T13:19:47.485Z,10.07
2022-12-13T13:22:44.252Z,10.17
2022-12-13T13:25:30.949Z,15.30
2022-12-13T13:28:12.613Z,18.42
2022-12-13T13:31:07.942Z,20.20
2022-12-13T13:33:52.846Z,22.00
2022-12-13T13:36:52.607Z,21.90
2022-12-13T13:39:38.746Z,22.48
2022-12-13T13:42:05.893Z,21.90
2022-12-13T13:45:14.454Z,22.45
2022-12-13T13:47:42.840Z,22.05
2022-12-13T13:50:34.690Z,21.67
2022-12-13T13:53:07.656Z,22.05
2022-12-13T13:56:27.779Z,21.50
2022-12-13T13:59:13.408Z,21.77
2022-12-13T14:02:15.554Z,23.60
2022-12-13T14:05:20.085Z,28.75
2022-12-13T14:08:14.707Z,30.38
2022-12-13T14:11:11.589Z,29.67
2022-12-13T14:13:57.034Z,29.67
2022-12-13T14:16:27.267Z,29.08
2022-12-13T14:19:18.747Z,28.25
2022-12-13T14:22:08.300Z,26.65
2022-12-13T14:24:50.522Z,26.88
2022-12-13T14:27:35.406Z,25.45
2022-12-13T14:30:27.149Z,25.75
2022-12-13T14:32:50.722Z,25.45
2022-12-13T14:35:30.114Z,24.48
2022-12-13T14:38:04.761Z,24.35
2022-12-13T14:40:37.298Z,23.73
2022-12-13T14:43:04.449Z,22.98
2022-12-13T14:45:38.737Z,21.80
2022-12-13T14:48:14.721Z,22.20
2022-12-13T14:50:44.521Z,21.92
2022-12-13T14:53:24.116Z,21.33
2022-12-13T14:56:28.069Z,20.17
2022-12-13T14:59:03.574Z,20.50
2022-12-13T15:01:35.765Z,19.70
2022-12-13T15:04:19.418Z,19.52
2022-12-13T15:06:48.699Z,19.47
2022-12-13T15:09:17.062Z,19.30
2022-12-13T15:11:45.282Z,19.30
2022-12-13T15:14:22.030Z,17.70
2022-12-13T15:16:51.208Z,18.80
2022-12-13T15:19:32.082Z,18.03
2022-12-13T15:22:17.471Z,17.63
2022-12-13T15:24:48.966Z,17.30
2022-12-13T15:27:27.635Z,17.63
2022-12-13T15:29:55.005Z,18.43
2022-12-13T15:32:25.451Z,19.03
2022-12-13T15:34:52.809Z,18.90
2022-12-13T15:37:29.286Z,19.30
2022-12-13T15:40:00.596Z,18.38
2022-12-13T15:42:32.949Z,18.13
2022-12-13T15:45:03.518Z,17.33
2022-12-13T15:47:30.845Z,16.55
2022-12-13T15:50:03.624Z,16.65
2022-12-13T15:52:34.552Z,16.13
2022-12-13T15:55:05.058Z,15.90
2022-12-13T15:57:34.487Z,15.02
2022-12-13T16:00:31.365Z,15.15
2022-12-13T16:03:09.309Z,13.90
2022-12-13T16:05:40.493Z,14.25
2022-12-13T16:08:18.184Z,13.15
2022-12-13T16:10:49.912Z,13.02
2022-12-13T16:13:31.536Z,12.88
2022-12-13T16:16:27.053Z,12.90
2022-12-13T16:18:59.522Z,12.23
2022-12-13T16:21:27.880Z,12.45
2022-12-13T16:23:54.885Z,12.23
2022-12-13T16:26:25.530Z,12.02
2022-12-13T16:28:54.010Z,11.40
2022-12-13T16:31:23.202Z,11.38
2022-12-13T16:33:50.053Z,11.40
2022-12-13T16:36:17.434Z,11.17
2022-12-13T16:38:44.397Z,11.40
2022-12-13T16:41:11.442Z,11.45
2022-12-13T16:43:48.145Z,10.80
2022-12-13T16:47:14.583Z,10.05
2022-12-13T16:49:08.833Z,10.23
2022-12-13T16:51:35.586Z,10.43
2022-12-13T16:54:02.283Z,10.73
2022-12-13T16:56:28.975Z,9.93
2022-12-13T16:58:56.313Z,9.93
2022-12-13T17:01:23.335Z,9.82
2022-12-13T17:03:52.568Z,9.35
2022-12-13T17:06:23.681Z,9.88
2022-12-13T17:08:50.742Z,9.30
2022-12-13T17:11:18.486Z,9.45
2022-12-13T17:13:47.458Z,9.68
2022-12-13T17:16:14.408Z,9.00
2022-12-13T17:18:41.259Z,9.15
2022-12-13T17:21:09.825Z,9.07
2022-12-13T17:23:37.013Z,8.60
2022-12-13T17:26:08.203Z,8.90
2022-12-13T17:28:35.459Z,8.63
2022-12-13T17:31:13.333Z,8.60
2022-12-13T17:33:41.857Z,8.98
2022-12-13T17:36:09.877Z,8.13
2022-12-13T17:38:36.973Z,8.17
2022-12-13T17:41:03.952Z,8.82
2022-12-13T17:43:35.383Z,8.02
2022-12-13T17:46:08.790Z,8.10
2022-12-13T17:48:40.725Z,8.13
2022-12-13T17:51:12.304Z,8.18
2022-12-13T17:53:40.299Z,7.70
2022-12-13T17:56:09.301Z,8.23
2022-12-13T17:58:37.579Z,7.93
2022-12-13T18:01:17.894Z,8.43
2022-12-13T18:03:45.041Z,7.50
2022-12-13T18:06:11.954Z,7.77
2022-12-13T18:08:40.279Z,7.35
2022-12-13T18:11:31.875Z,7.72
2022-12-13T18:13:55.847Z,7.65
2022-12-13T18:16:26.721Z,7.57
2022-12-13T18:18:57.051Z,7.78
2022-12-13T18:21:25.433Z,7.27
2022-12-13T18:23:55.054Z,7.23
2022-12-13T18:26:24.681Z,7.30
2022-12-13T18:28:51.970Z,7.35
2022-12-13T18:31:21.872Z,7.60
2022-12-13T18:33:49.814Z,7.22
2022-12-13T18:36:18.463Z,7.30
2022-12-13T18:38:45.366Z,7.90
2022-12-13T18:41:17.887Z,7.55
2022-12-13T18:43:45.172Z,7.30
2022-12-13T18:46:14.138Z,7.53
2022-12-13T18:48:41.240Z,7.38
2022-12-13T18:51:09.667Z,7.70
2022-12-13T18:53:37.623Z,7.47
2022-12-13T18:56:17.483Z,7.32
2022-12-13T18:58:46.618Z,7.25
2022-12-13T19:01:15.505Z,7.15
2022-12-13T19:03:43.951Z,7.43
2022-12-13T19:06:16.715Z,7.47
2022-12-13T19:08:43.584Z,7.38
2022-12-13T19:11:10.902Z,7.35
2022-12-13T19:13:37.626Z,7.38
2022-12-13T19:16:14.490Z,7.43
2022-12-13T19:18:42.249Z,7.47
2022-12-13T19:21:12.898Z,7.80
2022-12-13T19:23:40.880Z,7.75
2022-12-13T19:26:13.903Z,7.72
2022-12-13T19:28:42.110Z,7.43
2022-12-13T19:31:10.851Z,7.60
2022-12-13T19:33:37.698Z,7.57
2022-12-13T19:36:04.893Z,7.40
2022-12-13T19:38:32.510Z,8.18
2022-12-13T19:40:59.278Z,7.70
2022-12-13T19:43:26.544Z,7.60
2022-12-13T19:45:53.431Z,7.75
2022-12-13T19:48:20.106Z,8.10
2022-12-13T19:50:47.245Z,7.97
2022-12-13T19:53:14.044Z,8.15
2022-12-13T19:55:45.288Z,8.30
2022-12-13T19:58:15.073Z,8.30
2022-12-13T20:00:41.754Z,7.72
2022-12-13T20:03:08.504Z,8.17
2022-12-13T20:05:36.131Z,8.05
2022-12-13T20:08:03.121Z,8.38
2022-12-13T20:10:30.372Z,8.68
2022-12-13T20:12:57.260Z,8.23
2022-12-13T20:15:24.105Z,8.63
2022-12-13T20:17:51.660Z,8.48
2022-12-13T20:20:19.504Z,8.70
2022-12-13T20:22:46.702Z,9.00
2022-12-13T20:25:15.534Z,8.80
2022-12-13T20:27:43.973Z,8.80
2022-12-13T20:30:11.198Z,8.95
2022-12-13T20:32:38.278Z,8.73
2022-12-13T20:35:05.342Z,8.60
2022-12-13T20:37:32.027Z,9.50
2022-12-13T20:39:59.526Z,8.93
2022-12-13T20:42:26.365Z,9.52
2022-12-13T20:44:53.098Z,8.95
2022-12-13T20:47:19.820Z,9.20
2022-12-13T20:49:48.440Z,9.15
2022-12-13T20:52:16.915Z,9.48
2022-12-13T20:54:43.543Z,9.45
2022-12-13T20:57:10.193Z,9.37
2022-12-13T20:59:36.864Z,9.65
2022-12-13T21:02:05.461Z,9.15
2022-12-13T21:04:33.646Z,9.70
2022-12-13T21:07:02.461Z,9.32
2022-12-13T21:09:29.171Z,9.43
2022-12-13T21:11:56.177Z,9.13
2022-12-13T21:14:25.724Z,8.73
2022-12-13T21:16:54.912Z,9.45
2022-12-13T21:19:39.585Z,9.50
2022-12-13T21:22:07.478Z,9.30
2022-12-13T21:24:35.287Z,9.55
2022-12-13T21:27:02.268Z,9.30
2022-12-13T21:29:28.935Z,9.27
2022-12-13T21:31:55.963Z,9.07
2022-12-13T21:34:22.893Z,9.73
2022-12-13T21:36:52.099Z,9.55
2022-12-13T21:39:27.559Z,9.57
2022-12-13T21:41:54.631Z,9.93
2022-12-13T21:44:21.567Z,9.82
2022-12-13T21:49:35.792Z,9.43
2022-12-13T21:52:02.586Z,9.98
2022-12-13T21:54:29.337Z,9.63
2022-12-13T21:57:14.804Z,9.55
2022-12-13T21:59:41.593Z,9.15
2022-12-13T22:02:15.819Z,9.43
2022-12-13T22:04:52.145Z,9.43
2022-12-13T22:07:23.633Z,10.25
2022-12-13T22:09:51.493Z,9.63
2022-12-13T22:12:24.134Z,9.30
2022-12-13T22:14:51.885Z,9.55
2022-12-13T22:17:24.946Z,10.10
2022-12-13T22:19:54.624Z,9.88
2022-12-13T22:22:23.188Z,9.23
2022-12-13T22:24:53.783Z,9.90
2022-12-13T22:27:24.374Z,9.38
2022-12-13T22:29:57.110Z,9.63
2022-12-13T22:32:25.588Z,9.30
2022-12-13T22:34:52.401Z,9.53
2022-12-13T22:37:19.323Z,9.43
2022-12-13T22:39:46.221Z,9.60
2022-12-13T22:42:12.943Z,9.48
2022-12-13T22:44:39.829Z,9.33
2022-12-13T22:47:06.791Z,9.40
2022-12-13T22:49:33.536Z,9.48
2022-12-13T22:52:00.255Z,9.82
2022-12-13T22:54:26.981Z,9.70
2022-12-13T22:56:53.747Z,9.30
2022-12-13T22:59:20.450Z,9.05
2022-12-13T23:01:47.759Z,9.10
2022-12-13T23:04:15.185Z,9.48
2022-12-13T23:06:42.178Z,9.73
2022-12-13T23:09:12.212Z,9.82
2022-12-13T23:11:57.940Z,9.75
2022-12-13T23:14:32.948Z,8.68
2022-12-13T23:17:00.513Z,9.00
2022-12-13T23:19:51.532Z,9.63
2022-12-13T23:22:14.422Z,9.73
2022-12-13T23:24:41.130Z,10.20
2022-12-13T23:27:09.176Z,9.65
2022-12-13T23:29:36.227Z,9.77
2022-12-13T23:32:03.093Z,9.27
2022-12-13T23:34:29.812Z,9.38
2022-12-13T23:36:56.550Z,9.23
2022-12-13T23:39:23.306Z,9.23
2022-12-13T23:41:50.160Z,9.18
2022-12-13T23:44:17.483Z,9.02
2022-12-13T23:46:46.487Z,9.77
2022-12-13T23:49:16.421Z,9.43
2022-12-13T23:51:43.421Z,9.02
2022-12-13T23:54:14.513Z,9.07
2022-12-13T23:56:41.219Z,8.93
2022-12-13T23:59:08.019Z,9.10
